KCLK/CLK METAR and TAF weather

Enter ICAO airport designator
Station Type Date Time Source
KCLK METAR 2020/10/29 17:35 UTC NOAA

KCLK 291735Z AUTO 36016G22KT 10SM CLR 10/02 A3021 RMK AO2


Station Type Date Time Source
KCLK Decoded METAR 2020/10/29 17:35 UTC NOAA

Clinton, Clinton Regional Airport, OK, United States (KCLK) 35-32-17N 098-55-17W
Oct 29, 2020 - 01:35 PM EDT / 2020.10.29 1735 UTC
Wind: from the N (360 degrees) at 18 MPH (16 KT) gusting to 25 MPH (22 KT):0
Visibility: 10 mile(s):0
Sky conditions: clear
Temperature: 50 F (10 C)
Dew Point: 35 F (2 C)
Relative Humidity: 57%
Pressure (altimeter): 30.21 in. Hg (1023 hPa)
ob: KCLK 291735Z AUTO 36016G22KT 10SM CLR 10/02 A3021 RMK AO2
cycle: 17

Station Type Date Time Source
KCLK TAF UTC NOAA

Error!

Example: see airport list